»·PEaware :: N9401L KSBA-KOXR

N9401L :: KSBA-KOXR

FLIGHT INFORMATION

Flight Status: Arrived
Operator: Privately registered:
United States
More flights under this callsign
Pilot: Juan D. (11620)
Aircraft: Unknown
(P28U)
More flights by this aircraft type
Origin: KSBA Santa Barbara Mun
United States
Destination: KOXR Oxnard
United States
More flights between these airports :: More routes between these airports
Route: +KWANG CMA
File this flight plan on PilotEdge
Remarks: TEC ROUTE SBAP35
Altitude:
(Current/Filed)
3,000ft
Speed:
(Current/Filed)
160kts
Departed: 13-Mar-20 04:01 PM
Arrived: 13-Mar-20 04:40 PM
Distance/Time
Traveled:
35nm/0:39
Distance/Time
To Go:
Arrived

Flight Plot

Page will automatically refresh every two minutes.


Map Options




Map Legend


Flown Route
Filed Route
Departure Airport
Arrival Airport
Navaid (VOR, NDB)
Fix

Horizontal Profiles

Position Reports

Time Latitude Longitude Heading Altitude Ground
Speed
13-Mar-20 15:50 34.432579 -119.835047 70 16ft 0kts
13-Mar-20 15:51 34.432579 -119.835047 70 16ft 0kts
13-Mar-20 15:52 34.432579 -119.835047 70 16ft 0kts
13-Mar-20 15:53 34.432579 -119.835047 70 16ft 0kts
13-Mar-20 15:54 34.432579 -119.835047 70 16ft 0kts
13-Mar-20 15:55 34.431619 -119.835349 179 16ft 9kts
13-Mar-20 15:56 34.429177 -119.835232 148 16ft 8kts
13-Mar-20 15:57 34.428732 -119.834664 177 16ft 0kts
13-Mar-20 15:58 34.428732 -119.834664 177 16ft 0kts
13-Mar-20 15:59 34.427901 -119.835801 268 16ft 38kts
13-Mar-20 16:00 34.427641 -119.858424 269 804ft 77kts
13-Mar-20 16:01 34.427434 -119.883609 269 1885ft 71kts
13-Mar-20 16:02 34.427184 -119.908871 269 2848ft 77kts
13-Mar-20 16:03 34.416695 -119.939548 191 3002ft 142kts
13-Mar-20 16:04 34.379035 -119.924302 141 3004ft 146kts
13-Mar-20 16:05 34.367925 -119.876870 100 3012ft 147kts
13-Mar-20 16:06 34.360090 -119.827991 100 3012ft 148kts
13-Mar-20 16:07 34.352237 -119.778778 100 3012ft 150kts
13-Mar-20 16:08 34.344325 -119.729119 100 3012ft 150kts
13-Mar-20 16:09 34.336320 -119.679481 100 3013ft 150kts
13-Mar-20 16:10 34.328247 -119.630235 100 3014ft 149kts
13-Mar-20 16:11 34.320053 -119.581072 100 3015ft 148kts
13-Mar-20 16:12 34.312325 -119.532436 100 3021ft 147kts
13-Mar-20 16:13 34.302928 -119.484360 105 3024ft 147kts
13-Mar-20 16:15 34.290708 -119.428738 106 3026ft 146kts
13-Mar-20 16:15 34.282229 -119.390036 106 3022ft 146kts
13-Mar-20 16:16 34.272746 -119.345950 106 3010ft 145kts
13-Mar-20 16:17 34.276640 -119.305582 80 3010ft 146kts
13-Mar-20 16:18 34.282742 -119.266325 83 3011ft 146kts
13-Mar-20 16:19 34.287382 -119.226753 83 3011ft 146kts
13-Mar-20 16:20 34.292053 -119.187436 83 3011ft 146kts
13-Mar-20 16:21 34.297170 -119.145029 83 3011ft 146kts
13-Mar-20 16:22 34.295313 -119.099582 102 3011ft 145kts
13-Mar-20 16:23 34.290280 -119.062661 101 3697ft 120kts
13-Mar-20 16:24 34.285741 -119.028119 102 3995ft 143kts
13-Mar-20 16:25 34.280468 -118.989276 101 3993ft 146kts
13-Mar-20 16:26 34.264163 -118.957090 131 3993ft 142kts
13-Mar-20 16:27 34.244598 -118.927901 131 3993ft 146kts
13-Mar-20 16:28 34.223976 -118.897118 131 3993ft 146kts
13-Mar-20 16:29 34.198832 -118.888705 233 3983ft 138kts
13-Mar-20 16:30 34.193147 -118.924706 270 3987ft 142kts
13-Mar-20 16:31 34.195449 -118.962786 271 3987ft 142kts
13-Mar-20 16:32 34.198368 -119.002038 274 3505ft 155kts
13-Mar-20 16:33 34.199543 -119.042368 266 3049ft 149kts
13-Mar-20 16:34 34.198878 -119.080660 267 2511ft 145kts
13-Mar-20 16:36 34.199556 -119.122257 270 1403ft 119kts
13-Mar-20 16:36 34.200414 -119.145115 268 920ft 90kts
13-Mar-20 16:37 34.200757 -119.167553 266 651ft 90kts
13-Mar-20 16:38 34.200687 -119.188003 266 280ft 73kts
13-Mar-20 16:39 34.200721 -119.202722 260 44ft 25kts
13-Mar-20 16:40 34.199163 -119.198360 165 44ft 33kts

Navigation Log

Ident Type
Flight plan parsing failed, navigation log unavailable